Time;durP1;ratioP1;P1;durP2;ratioP2;P2;SDS_P1;SDS_P2;PMS_P1;PMS_P2;Temp;Humidity;BMP_temperature;BMP_pressure;BME280_temperature;BME280_humidity;BME280_pressure;Samples;Min_cycle;Max_cycle;Signal;HPM_P1;HPM_P2
2023/05/26 00:01:48;;;;;;;127.95;56.47;;;;;;;;;;5014609;28;20041;-79
2023/05/26 00:04:17;;;;;;;129.18;59.08;;;;;;;;;;5033223;28;20044;-80
2023/05/26 00:06:44;;;;;;;110.45;55.53;;;;;;;;;;5034609;28;20053;-80
2023/05/26 00:09:10;;;;;;;110.63;54.85;;;;;;;;;;5036105;28;20041;-80
2023/05/26 00:11:36;;;;;;;100.00;51.20;;;;;;;;;;5036929;28;20049;-79
2023/05/26 00:14:02;;;;;;;89.72;46.10;;;;;;;;;;5034131;28;20056;-79
2023/05/26 00:16:28;;;;;;;74.97;38.72;;;;;;;;;;5036438;28;20037;-80
2023/05/26 00:18:54;;;;;;;83.22;42.88;;;;;;;;;;5000456;28;20041;-78
2023/05/26 00:21:20;;;;;;;122.75;59.45;;;;;;;;;;5032974;28;20049;-80
2023/05/26 00:23:46;;;;;;;105.43;50.47;;;;;;;;;;5033107;28;20121;-79
2023/05/26 00:26:11;;;;;;;91.38;42.30;;;;;;;;;;5034689;28;20597;-79
2023/05/26 00:28:38;;;;;;;101.95;43.65;;;;;;;;;;4999755;28;20057;-77
2023/05/26 00:31:05;;;;;;;102.85;43.85;;;;;;;;;;4996576;28;20064;-78
2023/05/26 00:33:31;;;;;;;93.43;42.70;;;;;;;;;;5030899;28;20041;-79
2023/05/26 00:35:57;;;;;;;97.22;43.83;;;;;;;;;;4980801;28;20416;-79
2023/05/26 00:38:23;;;;;;;89.35;40.85;;;;;;;;;;5030817;28;20095;-78
2023/05/26 00:40:49;;;;;;;63.72;35.05;;;;;;;;;;5031146;28;20041;-78
2023/05/26 00:43:15;;;;;;;158.73;39.38;;;;;;;;;;5029372;28;20041;-79
2023/05/26 00:45:41;;;;;;;103.15;38.67;;;;;;;;;;5033852;28;20048;-80
2023/05/26 00:48:07;;;;;;;159.23;41.15;;;;;;;;;;5033188;28;20509;-78
2023/05/26 00:50:34;;;;;;;110.22;35.60;;;;;;;;;;5015181;28;20494;-81
2023/05/26 00:53:00;;;;;;;173.23;38.20;;;;;;;;;;5035097;28;20557;-80
2023/05/26 00:55:28;;;;;;;156.95;36.33;;;;;;;;;;5018696;28;20109;-81
2023/05/26 00:57:54;;;;;;;368.25;44.45;;;;;;;;;;5035491;28;20045;-79
2023/05/26 01:00:21;;;;;;;112.50;45.63;;;;;;;;;;5033503;28;20252;-78
2023/05/26 01:02:47;;;;;;;166.75;44.72;;;;;;;;;;5030728;28;20034;-77
2023/05/26 01:05:15;;;;;;;196.73;42.70;;;;;;;;;;4996381;28;20049;-78
2023/05/26 01:07:42;;;;;;;77.72;39.78;;;;;;;;;;5030581;28;20072;-78
2023/05/26 01:10:09;;;;;;;103.88;45.97;;;;;;;;;;5012650;28;20052;-79
2023/05/26 01:12:37;;;;;;;126.22;48.42;;;;;;;;;;5030945;28;20378;-78
2023/05/26 01:15:08;;;;;;;137.60;49.13;;;;;;;;;;5029552;28;20143;-79
2023/05/26 01:17:36;;;;;;;82.18;41.40;;;;;;;;;;5031772;28;20037;-77
2023/05/26 01:20:09;;;;;;;93.45;43.60;;;;;;;;;;5029879;28;20075;-79
2023/05/26 01:22:51;;;;;;;101.82;46.67;;;;;;;;;;5029453;28;20528;-77
2023/05/26 01:25:30;;;;;;;90.53;41.60;;;;;;;;;;5029037;28;20045;-78
2023/05/26 01:28:02;;;;;;;81.22;41.60;;;;;;;;;;5012430;28;20331;-77
2023/05/26 01:30:29;;;;;;;98.85;46.25;;;;;;;;;;5032137;28;20229;-78
2023/05/26 01:32:55;;;;;;;115.35;53.75;;;;;;;;;;5030812;28;20085;-80
2023/05/26 01:35:21;;;;;;;105.00;51.75;;;;;;;;;;5028616;28;20048;-81
2023/05/26 01:37:47;;;;;;;105.05;47.42;;;;;;;;;;5019943;28;20049;-79
2023/05/26 01:40:13;;;;;;;101.07;51.47;;;;;;;;;;4998308;28;20038;-80
2023/05/26 01:42:43;;;;;;;90.60;47.33;;;;;;;;;;5015460;28;20051;-79
2023/05/26 01:45:18;;;;;;;72.50;42.00;;;;;;;;;;5037035;28;20045;-81
2023/05/26 01:47:46;;;;;;;86.97;44.38;;;;;;;;;;5036844;28;20064;-79
2023/05/26 01:50:12;;;;;;;73.40;41.80;;;;;;;;;;5034928;28;20046;-79
2023/05/26 01:52:38;;;;;;;72.35;42.40;;;;;;;;;;5018063;28;20056;-79
2023/05/26 01:55:07;;;;;;;65.10;38.05;;;;;;;;;;5034361;28;20129;-79
2023/05/26 01:57:34;;;;;;;58.37;36.07;;;;;;;;;;4982752;28;20596;-78
2023/05/26 02:00:00;;;;;;;42.95;30.33;;;;;;;;;;5015770;28;20049;-79
2023/05/26 02:02:26;;;;;;;40.03;29.85;;;;;;;;;;5032974;28;20248;-79
2023/05/26 02:04:51;;;;;;;30.00;22.67;;;;;;;;;;5017319;28;20159;-79
2023/05/26 02:07:19;;;;;;;33.03;25.17;;;;;;;;;;5017356;28;20049;-80
2023/05/26 02:09:45;;;;;;;20.20;18.25;;;;;;;;;;5001637;28;20034;-80
2023/05/26 02:12:10;;;;;;;20.02;18.13;;;;;;;;;;5018355;28;20052;-80
2023/05/26 02:14:37;;;;;;;26.25;23.45;;;;;;;;;;5020777;28;20046;-81
2023/05/26 02:17:03;;;;;;;15.13;13.93;;;;;;;;;;5040649;28;20045;-80
2023/05/26 02:19:49;;;;;;;19.95;16.75;;;;;;;;;;5025670;28;20049;-81
2023/05/26 02:22:17;;;;;;;25.60;17.67;;;;;;;;;;5021560;28;20103;-80
2023/05/26 02:24:46;;;;;;;15.80;14.23;;;;;;;;;;5004674;28;20041;-81
2023/05/26 02:27:12;;;;;;;16.33;13.65;;;;;;;;;;5033495;28;20058;-78
2023/05/26 02:29:38;;;;;;;14.00;11.95;;;;;;;;;;5036470;28;20394;-80
2023/05/26 02:32:04;;;;;;;9.40;8.73;;;;;;;;;;5043284;28;20041;-80
2023/05/26 02:34:30;;;;;;;11.25;10.15;;;;;;;;;;5043206;28;20046;-81
2023/05/26 02:36:57;;;;;;;10.00;9.30;;;;;;;;;;5040677;28;20041;-80
2023/05/26 02:39:23;;;;;;;11.05;10.20;;;;;;;;;;5039634;28;20520;-79
2023/05/26 02:41:49;;;;;;;11.50;10.35;;;;;;;;;;5037266;28;20125;-80
2023/05/26 02:44:15;;;;;;;9.98;9.07;;;;;;;;;;5033888;28;20045;-82
2023/05/26 02:46:41;;;;;;;9.50;8.80;;;;;;;;;;5038379;28;20057;-81
2023/05/26 02:49:07;;;;;;;11.82;10.98;;;;;;;;;;5022233;28;20164;-82
2023/05/26 02:51:35;;;;;;;9.52;8.85;;;;;;;;;;5042338;28;20049;-81
2023/05/26 02:54:01;;;;;;;11.60;10.80;;;;;;;;;;5020696;28;20537;-80
2023/05/26 02:56:27;;;;;;;12.18;11.18;;;;;;;;;;5038889;28;20049;-81
2023/05/26 02:58:53;;;;;;;12.95;11.65;;;;;;;;;;5042442;28;20175;-81
2023/05/26 03:01:19;;;;;;;11.18;10.27;;;;;;;;;;5000006;28;20141;-77
2023/05/26 03:03:45;;;;;;;15.55;13.30;;;;;;;;;;5014363;28;20102;-79
2023/05/26 03:06:11;;;;;;;16.13;14.60;;;;;;;;;;5030711;28;20053;-76
2023/05/26 03:08:37;;;;;;;13.30;12.18;;;;;;;;;;5031240;28;20054;-79
2023/05/26 03:11:05;;;;;;;12.48;11.50;;;;;;;;;;4997532;28;20413;-78
2023/05/26 03:13:31;;;;;;;18.27;16.33;;;;;;;;;;5032458;28;20052;-79
2023/05/26 03:15:57;;;;;;;18.85;16.77;;;;;;;;;;5033378;28;20042;-79
2023/05/26 03:18:23;;;;;;;24.02;18.08;;;;;;;;;;5034532;28;20048;-80
2023/05/26 03:20:49;;;;;;;26.40;18.48;;;;;;;;;;5035837;28;20144;-81
2023/05/26 03:23:18;;;;;;;17.75;14.43;;;;;;;;;;5045703;28;20049;-80
2023/05/26 03:25:45;;;;;;;16.67;15.07;;;;;;;;;;5042159;28;20046;-81
2023/05/26 03:28:12;;;;;;;12.80;11.68;;;;;;;;;;5019477;28;20119;-80
2023/05/26 03:30:38;;;;;;;17.52;15.52;;;;;;;;;;5034910;28;20068;-80
2023/05/26 03:33:04;;;;;;;17.63;15.85;;;;;;;;;;5034656;28;20046;-81
2023/05/26 03:35:31;;;;;;;18.50;16.55;;;;;;;;;;5034803;28;20056;-79
2023/05/26 03:37:57;;;;;;;23.42;16.48;;;;;;;;;;5037028;28;20513;-81
2023/05/26 03:40:23;;;;;;;18.77;17.02;;;;;;;;;;5017212;28;20045;-80
2023/05/26 03:42:49;;;;;;;22.25;17.63;;;;;;;;;;5016755;28;20046;-77
2023/05/26 03:45:16;;;;;;;22.15;16.80;;;;;;;;;;4998443;28;20048;-77
2023/05/26 03:47:42;;;;;;;23.80;18.73;;;;;;;;;;5012992;28;20046;-80
2023/05/26 03:50:09;;;;;;;27.77;19.25;;;;;;;;;;5013962;28;20514;-81
2023/05/26 03:52:36;;;;;;;22.95;18.67;;;;;;;;;;5012106;28;20052;-78
2023/05/26 03:55:03;;;;;;;25.27;18.63;;;;;;;;;;5026235;28;20042;-79
2023/05/26 03:57:30;;;;;;;24.00;18.85;;;;;;;;;;5005924;28;20048;-81
2023/05/26 03:59:56;;;;;;;23.63;17.98;;;;;;;;;;5006969;28;20124;-81
2023/05/26 04:02:22;;;;;;;20.90;18.77;;;;;;;;;;5024729;28;20041;-80
2023/05/26 04:04:48;;;;;;;23.55;19.50;;;;;;;;;;5021711;28;20052;-82
2023/05/26 04:07:15;;;;;;;22.80;19.50;;;;;;;;;;5042288;28;20075;-81
2023/05/26 04:09:41;;;;;;;25.70;18.67;;;;;;;;;;5037534;28;20111;-79
2023/05/26 04:12:07;;;;;;;22.27;18.58;;;;;;;;;;5001376;28;20128;-80
2023/05/26 04:14:33;;;;;;;22.80;18.92;;;;;;;;;;5023596;28;20132;-81
2023/05/26 04:16:59;;;;;;;23.30;18.52;;;;;;;;;;5041042;28;20547;-80
2023/05/26 04:19:26;;;;;;;21.77;19.50;;;;;;;;;;4989325;28;20045;-82
2023/05/26 04:21:54;;;;;;;26.00;19.75;;;;;;;;;;5004032;28;20042;-81
2023/05/26 04:24:20;;;;;;;21.92;18.83;;;;;;;;;;5020318;28;20053;-82
2023/05/26 04:26:48;;;;;;;20.00;18.00;;;;;;;;;;5023732;28;20072;-84
2023/05/26 04:29:52;;;;;;;25.20;18.27;;;;;;;;;;4975110;28;20047;-82
2023/05/26 04:32:42;;;;;;;20.60;18.60;;;;;;;;;;4980835;28;20046;-82
2023/05/26 04:35:27;;;;;;;24.52;18.60;;;;;;;;;;5019405;28;20038;-83
2023/05/26 04:37:53;;;;;;;20.83;18.88;;;;;;;;;;5030150;28;20050;-82
2023/05/26 04:40:20;;;;;;;23.50;19.95;;;;;;;;;;5017985;28;20073;-79
2023/05/26 04:42:48;;;;;;;25.83;19.60;;;;;;;;;;5015728;28;20042;-81
2023/05/26 04:45:14;;;;;;;22.02;19.75;;;;;;;;;;5002113;28;20053;-81
2023/05/26 04:47:42;;;;;;;25.17;19.10;;;;;;;;;;5019741;28;20057;-81
2023/05/26 04:50:12;;;;;;;25.02;19.10;;;;;;;;;;5000464;28;20069;-82
2023/05/26 04:52:41;;;;;;;23.58;19.50;;;;;;;;;;5021143;28;20468;-81
2023/05/26 04:55:08;;;;;;;28.00;20.63;;;;;;;;;;5003190;28;20044;-82
2023/05/26 04:57:34;;;;;;;30.60;20.00;;;;;;;;;;5018524;28;20125;-81
2023/05/26 05:00:00;;;;;;;32.45;21.20;;;;;;;;;;5023170;28;20052;-82
2023/05/26 05:02:30;;;;;;;40.27;21.83;;;;;;;;;;5005923;28;20034;-81
2023/05/26 05:05:10;;;;;;;32.65;20.52;;;;;;;;;;5010497;28;20285;-81
2023/05/26 05:07:37;;;;;;;37.47;21.38;;;;;;;;;;5025094;28;20152;-81
2023/05/26 05:10:03;;;;;;;33.47;20.52;;;;;;;;;;5005099;28;20045;-83
2023/05/26 05:12:31;;;;;;;28.23;19.92;;;;;;;;;;5019594;28;20045;-82
2023/05/26 05:14:58;;;;;;;29.55;20.42;;;;;;;;;;5016785;28;20030;-83
2023/05/26 05:17:23;;;;;;;27.15;20.45;;;;;;;;;;5019828;28;20073;-84
2023/05/26 05:19:49;;;;;;;26.35;19.73;;;;;;;;;;5077127;23;20082;-82
2023/05/26 05:22:16;;;;;;;23.42;20.10;;;;;;;;;;5001318;28;20076;-81
2023/05/26 05:24:41;;;;;;;21.05;18.95;;;;;;;;;;5019194;28;20038;-82
2023/05/26 05:27:08;;;;;;;29.30;19.88;;;;;;;;;;5017516;28;20057;-81
2023/05/26 05:29:34;;;;;;;26.98;20.10;;;;;;;;;;4998275;28;20040;-82
2023/05/26 05:32:01;;;;;;;25.42;19.70;;;;;;;;;;4998733;28;20042;-82
2023/05/26 05:34:33;;;;;;;25.90;20.75;;;;;;;;;;4998346;28;20034;-82
2023/05/26 05:36:59;;;;;;;28.67;19.15;;;;;;;;;;4990056;28;20057;-79
2023/05/26 05:39:25;;;;;;;28.23;18.60;;;;;;;;;;5014818;28;20033;-79
2023/05/26 05:41:51;;;;;;;22.58;20.33;;;;;;;;;;5013065;28;20049;-79
2023/05/26 05:44:17;;;;;;;28.90;20.50;;;;;;;;;;5021808;28;20045;-80
2023/05/26 05:46:44;;;;;;;26.25;20.20;;;;;;;;;;5005835;28;20041;-80
2023/05/26 05:49:16;;;;;;;24.05;19.70;;;;;;;;;;5021986;28;20459;-81
2023/05/26 05:51:45;;;;;;;;;;;;;;;;;;5000460;28;20523;-82
2023/05/26 05:54:13;;;;;;;23.67;20.08;;;;;;;;;;5004231;28;19913;-81
2023/05/26 05:56:40;;;;;;;22.35;20.35;;;;;;;;;;5026672;28;20263;-82
2023/05/26 05:59:10;;;;;;;22.30;19.87;;;;;;;;;;5012412;28;20105;-81
2023/05/26 06:01:36;;;;;;;20.83;18.65;;;;;;;;;;5009572;28;20038;-81
2023/05/26 06:04:02;;;;;;;19.38;17.15;;;;;;;;;;4994432;28;20083;-81
2023/05/26 06:06:28;;;;;;;18.58;15.02;;;;;;;;;;5007522;28;20581;-80
2023/05/26 06:08:54;;;;;;;19.25;15.43;;;;;;;;;;5014156;28;20433;-80
2023/05/26 06:11:21;;;;;;;16.65;14.85;;;;;;;;;;4992609;28;20521;-80
2023/05/26 06:13:47;;;;;;;20.02;13.23;;;;;;;;;;4995922;28;20053;-81
2023/05/26 06:16:13;;;;;;;16.80;12.30;;;;;;;;;;5016071;28;20038;-78
2023/05/26 06:18:40;;;;;;;14.70;11.40;;;;;;;;;;5009596;28;20058;-83
2023/05/26 06:21:07;;;;;;;15.43;11.02;;;;;;;;;;5011339;28;20090;-82
2023/05/26 06:23:33;;;;;;;19.40;11.85;;;;;;;;;;5008845;28;20439;-82
2023/05/26 06:26:00;;;;;;;20.05;13.63;;;;;;;;;;5010099;28;20026;-82
2023/05/26 06:28:26;;;;;;;13.48;12.13;;;;;;;;;;5013635;28;20080;-83
2023/05/26 06:30:52;;;;;;;14.65;11.15;;;;;;;;;;5028763;28;20042;-81
2023/05/26 06:33:39;;;;;;;15.75;10.15;;;;;;;;;;5005400;28;20056;-83
2023/05/26 06:36:05;;;;;;;15.80;11.50;;;;;;;;;;5010950;28;20037;-83
2023/05/26 06:38:31;;;;;;;17.52;12.45;;;;;;;;;;5013890;28;20052;-80
2023/05/26 06:41:01;;;;;;;15.27;12.88;;;;;;;;;;5031069;28;20041;-84
2023/05/26 06:43:27;;;;;;;17.58;13.38;;;;;;;;;;5012668;28;20050;-80
2023/05/26 06:45:54;;;;;;;15.45;13.02;;;;;;;;;;5001225;28;20049;-80
2023/05/26 06:48:20;;;;;;;15.02;13.45;;;;;;;;;;5020281;28;20077;-81
2023/05/26 06:51:00;;;;;;;14.57;12.30;;;;;;;;;;5000837;28;20089;-80
2023/05/26 06:53:26;;;;;;;15.13;11.93;;;;;;;;;;4999666;28;20050;-81
2023/05/26 06:55:56;;;;;;;12.50;11.32;;;;;;;;;;5012691;28;20042;-82
2023/05/26 06:58:22;;;;;;;11.02;9.98;;;;;;;;;;4995121;28;20484;-81
2023/05/26 07:01:00;;;;;;;12.23;9.63;;;;;;;;;;5013740;28;20041;-80
2023/05/26 07:03:29;;;;;;;10.75;9.75;;;;;;;;;;4981264;28;20092;-79
2023/05/26 07:05:55;;;;;;;10.13;9.23;;;;;;;;;;4987507;28;20038;-79
2023/05/26 07:08:21;;;;;;;18.35;10.00;;;;;;;;;;4995345;28;20080;-79
2023/05/26 07:10:47;;;;;;;10.77;8.93;;;;;;;;;;4994358;28;20072;-78
2023/05/26 07:13:15;;;;;;;10.52;8.80;;;;;;;;;;4977777;28;20050;-79
2023/05/26 07:15:42;;;;;;;10.20;8.52;;;;;;;;;;4993795;28;20053;-80
2023/05/26 07:18:11;;;;;;;9.70;8.10;;;;;;;;;;5010221;28;20053;-78
2023/05/26 07:20:38;;;;;;;9.27;8.48;;;;;;;;;;5012843;28;20041;-79
2023/05/26 07:23:04;;;;;;;12.73;8.23;;;;;;;;;;5017278;28;20043;-80
2023/05/26 07:25:30;;;;;;;10.40;9.23;;;;;;;;;;5017682;28;20073;-80
2023/05/26 07:27:58;;;;;;;9.63;8.77;;;;;;;;;;5013303;28;20061;-80
2023/05/26 07:30:24;;;;;;;11.40;8.90;;;;;;;;;;5010613;28;20131;-78
2023/05/26 07:33:22;;;;;;;10.80;9.00;;;;;;;;;;5009827;28;20045;-78
2023/05/26 07:35:48;;;;;;;11.82;9.77;;;;;;;;;;5010742;28;20096;-78
2023/05/26 07:38:15;;;;;;;9.52;8.68;;;;;;;;;;4989408;28;20053;-77
2023/05/26 07:40:41;;;;;;;11.20;9.32;;;;;;;;;;5006344;28;20124;-78
2023/05/26 07:43:10;;;;;;;17.27;10.25;;;;;;;;;;5007043;28;20057;-78
2023/05/26 07:45:36;;;;;;;14.90;10.73;;;;;;;;;;4991384;28;20057;-79
2023/05/26 07:48:02;;;;;;;13.02;9.68;;;;;;;;;;5009030;28;20058;-79
2023/05/26 07:50:28;;;;;;;14.73;11.07;;;;;;;;;;5009202;28;20061;-79
2023/05/26 07:52:54;;;;;;;10.70;9.73;;;;;;;;;;5008819;28;20553;-78
2023/05/26 07:55:20;;;;;;;11.55;10.48;;;;;;;;;;5009063;28;20413;-77
2023/05/26 07:57:46;;;;;;;10.10;9.23;;;;;;;;;;4991615;28;20058;-78
2023/05/26 08:00:12;;;;;;;11.05;8.60;;;;;;;;;;5011037;28;20558;-78
2023/05/26 08:02:42;;;;;;;10.10;9.18;;;;;;;;;;5010807;28;20077;-77
2023/05/26 08:05:08;;;;;;;10.82;9.75;;;;;;;;;;5010388;28;20458;-78
2023/05/26 08:07:34;;;;;;;9.95;8.63;;;;;;;;;;5014152;28;20085;-78
2023/05/26 08:10:00;;;;;;;9.18;8.07;;;;;;;;;;5010762;28;20111;-78
2023/05/26 08:12:26;;;;;;;9.82;7.97;;;;;;;;;;5011590;28;20052;-80
2023/05/26 08:14:52;;;;;;;12.60;8.30;;;;;;;;;;5011098;28;20037;-79
2023/05/26 08:17:18;;;;;;;10.02;8.13;;;;;;;;;;5011217;28;20509;-78
2023/05/26 08:19:44;;;;;;;10.73;7.25;;;;;;;;;;4993376;28;20038;-79
2023/05/26 08:22:10;;;;;;;11.38;7.43;;;;;;;;;;5011247;28;20095;-80
2023/05/26 08:24:36;;;;;;;9.70;7.80;;;;;;;;;;4990437;28;20073;-82
2023/05/26 08:27:03;;;;;;;8.60;7.85;;;;;;;;;;4993176;28;20453;-82
2023/05/26 08:29:28;;;;;;;11.00;7.25;;;;;;;;;;4991101;28;20061;-80
2023/05/26 08:31:54;;;;;;;8.05;7.30;;;;;;;;;;5002590;28;20061;-79
2023/05/26 08:34:20;;;;;;;9.40;6.43;;;;;;;;;;4990502;28;20509;-81
2023/05/26 08:36:47;;;;;;;12.55;5.90;;;;;;;;;;5008061;28;20088;-79
2023/05/26 08:39:13;;;;;;;10.10;5.13;;;;;;;;;;5010164;28;20099;-79
2023/05/26 08:41:50;;;;;;;5.13;4.50;;;;;;;;;;5009434;28;20117;-79
2023/05/26 08:44:17;;;;;;;4.80;4.50;;;;;;;;;;4962739;28;20031;-80
2023/05/26 08:46:45;;;;;;;6.55;5.10;;;;;;;;;;4992803;28;20397;-81
2023/05/26 08:49:13;;;;;;;5.30;4.90;;;;;;;;;;4977130;28;20522;-81
2023/05/26 08:51:40;;;;;;;7.50;4.10;;;;;;;;;;4975305;28;20046;-80
2023/05/26 08:54:06;;;;;;;6.60;4.65;;;;;;;;;;4992490;28;20104;-77
2023/05/26 08:56:32;;;;;;;7.20;5.07;;;;;;;;;;4994688;28;20662;-80
2023/05/26 08:59:00;;;;;;;5.13;4.72;;;;;;;;;;5007568;28;20033;-79
2023/05/26 09:01:26;;;;;;;5.60;5.10;;;;;;;;;;4992204;28;20054;-79
2023/05/26 09:03:52;;;;;;;5.13;4.32;;;;;;;;;;5009597;28;20045;-78
2023/05/26 09:06:18;;;;;;;5.03;4.50;;;;;;;;;;5007670;28;20045;-76
2023/05/26 09:08:44;;;;;;;4.60;4.30;;;;;;;;;;5009354;28;20464;-79
2023/05/26 09:11:20;;;;;;;8.10;4.32;;;;;;;;;;5009570;28;20525;-79
2023/05/26 09:13:50;;;;;;;5.95;4.25;;;;;;;;;;4992085;28;20081;-75
2023/05/26 09:16:16;;;;;;;5.68;3.88;;;;;;;;;;4991952;28;20352;-75
2023/05/26 09:18:42;;;;;;;5.50;4.40;;;;;;;;;;4991665;28;20565;-76
2023/05/26 09:21:08;;;;;;;4.65;4.25;;;;;;;;;;4992993;28;20073;-76
2023/05/26 09:23:34;;;;;;;7.38;4.50;;;;;;;;;;4992246;28;20053;-76
2023/05/26 09:26:02;;;;;;;8.70;4.72;;;;;;;;;;4994226;28;20046;-77
2023/05/26 09:28:28;;;;;;;5.30;4.80;;;;;;;;;;4977327;28;20514;-77
2023/05/26 09:30:54;;;;;;;4.47;4.18;;;;;;;;;;4975934;28;20041;-77
2023/05/26 09:33:20;;;;;;;6.03;4.35;;;;;;;;;;4975795;28;20107;-76
2023/05/26 09:35:49;;;;;;;4.60;4.30;;;;;;;;;;4992386;28;20441;-78
2023/05/26 09:41:03;;;;;;;8.93;4.28;;;;;;;;;;6012378;22;20049;-79
2023/05/26 09:43:32;;;;;;;4.25;3.95;;;;;;;;;;5044859;28;20045;-85
2023/05/26 09:45:58;;;;;;;4.82;4.30;;;;;;;;;;5033086;28;20067;-83
2023/05/26 09:48:24;;;;;;;4.57;4.28;;;;;;;;;;5053459;28;20052;-84
2023/05/26 09:50:51;;;;;;;4.93;4.53;;;;;;;;;;5069385;28;20065;-87
2023/05/26 09:53:17;;;;;;;4.85;4.45;;;;;;;;;;5405523;22;20981;-79
2023/05/26 09:58:30;;;;;;;4.70;4.40;;;;;;;;;;5054883;28;20046;-88
2023/05/26 10:00:56;;;;;;;4.97;4.50;;;;;;;;;;5030292;28;20045;-84
2023/05/26 10:03:22;;;;;;;8.48;4.57;;;;;;;;;;5021975;28;20029;-85
2023/05/26 10:05:48;;;;;;;5.50;4.63;;;;;;;;;;5056838;28;20021;-83
2023/05/26 10:08:15;;;;;;;5.28;4.15;;;;;;;;;;5041799;28;20041;-82
2023/05/26 10:10:41;;;;;;;12.25;5.20;;;;;;;;;;4984643;28;20052;-84
2023/05/26 10:13:07;;;;;;;9.00;4.68;;;;;;;;;;5024810;28;20042;-83
2023/05/26 10:15:33;;;;;;;7.93;4.50;;;;;;;;;;5044809;28;20042;-83
2023/05/26 10:18:01;;;;;;;5.05;4.57;;;;;;;;;;5055091;28;20087;-85
2023/05/26 10:20:27;;;;;;;6.45;4.90;;;;;;;;;;5032999;28;20040;-84
2023/05/26 10:23:05;;;;;;;8.05;4.85;;;;;;;;;;5027237;28;20052;-82
2023/05/26 10:25:41;;;;;;;6.50;4.70;;;;;;;;;;5046652;28;20069;-82
2023/05/26 10:28:07;;;;;;;10.98;4.90;;;;;;;;;;5042983;28;20041;-82
2023/05/26 10:30:32;;;;;;;4.70;4.38;;;;;;;;;;5030454;28;20115;-82
2023/05/26 10:33:08;;;;;;;10.00;4.72;;;;;;;;;;4987224;28;20049;-81
2023/05/26 10:35:35;;;;;;;10.52;4.70;;;;;;;;;;5038737;28;20179;-79
2023/05/26 10:38:03;;;;;;;4.93;4.53;;;;;;;;;;4983596;28;20429;-79
2023/05/26 10:40:32;;;;;;;6.57;4.63;;;;;;;;;;5012358;28;20045;-79
2023/05/26 10:42:59;;;;;;;4.90;4.57;;;;;;;;;;4993727;28;20041;-78
2023/05/26 10:45:25;;;;;;;4.50;4.15;;;;;;;;;;4993016;28;20054;-77
2023/05/26 10:47:51;;;;;;;7.47;4.20;;;;;;;;;;5005831;28;20301;-76
2023/05/26 10:50:17;;;;;;;6.32;4.57;;;;;;;;;;4993434;28;20132;-76
2023/05/26 10:52:46;;;;;;;13.88;4.38;;;;;;;;;;5010448;28;20134;-75
2023/05/26 10:55:28;;;;;;;8.85;4.30;;;;;;;;;;5012711;28;20054;-76
2023/05/26 10:57:54;;;;;;;5.15;4.45;;;;;;;;;;5026960;28;20437;-76
2023/05/26 11:00:21;;;;;;;4.78;4.25;;;;;;;;;;5032255;28;20049;-81
2023/05/26 11:02:47;;;;;;;4.82;4.13;;;;;;;;;;5000618;28;20044;-82
2023/05/26 11:05:31;;;;;;;6.53;4.63;;;;;;;;;;5006751;28;20049;-82
2023/05/26 11:07:57;;;;;;;5.60;4.50;;;;;;;;;;5005394;28;20042;-82
2023/05/26 11:10:23;;;;;;;4.78;4.43;;;;;;;;;;5035968;28;20068;-82
2023/05/26 11:12:51;;;;;;;5.88;4.07;;;;;;;;;;5017775;28;20041;-81
2023/05/26 11:15:30;;;;;;;4.55;4.15;;;;;;;;;;5018234;28;20041;-82
2023/05/26 11:18:03;;;;;;;8.33;4.17;;;;;;;;;;5001513;28;20080;-81
2023/05/26 11:20:29;;;;;;;5.32;4.82;;;;;;;;;;5023022;28;20041;-83
2023/05/26 11:22:55;;;;;;;4.28;3.92;;;;;;;;;;5040092;28;20045;-80
2023/05/26 11:25:21;;;;;;;5.57;4.65;;;;;;;;;;5039390;28;20046;-82
2023/05/26 11:27:47;;;;;;;5.00;4.60;;;;;;;;;;5037478;28;20044;-82
2023/05/26 11:30:13;;;;;;;5.35;3.83;;;;;;;;;;5022053;28;20072;-82
2023/05/26 11:32:49;;;;;;;5.80;4.30;;;;;;;;;;5039233;28;20060;-82
2023/05/26 11:35:22;;;;;;;4.93;4.20;;;;;;;;;;5021421;28;20042;-81
2023/05/26 11:37:48;;;;;;;6.22;4.70;;;;;;;;;;5023363;28;20585;-82
2023/05/26 11:40:14;;;;;;;10.77;4.63;;;;;;;;;;5035837;28;20041;-81
2023/05/26 11:42:43;;;;;;;7.85;4.80;;;;;;;;;;5036135;28;20051;-81
2023/05/26 11:45:09;;;;;;;11.52;4.65;;;;;;;;;;5037577;28;20505;-81
2023/05/26 11:47:35;;;;;;;11.52;4.53;;;;;;;;;;5039838;28;20041;-81
2023/05/26 11:50:08;;;;;;;10.93;4.13;;;;;;;;;;5039617;28;20057;-81
2023/05/26 11:52:34;;;;;;;8.77;4.03;;;;;;;;;;5038921;28;20049;-82
2023/05/26 11:55:02;;;;;;;7.05;4.38;;;;;;;;;;5045308;28;20275;-82
2023/05/26 11:57:33;;;;;;;10.90;4.80;;;;;;;;;;5047113;28;20077;-82
2023/05/26 11:59:59;;;;;;;7.30;4.30;;;;;;;;;;5040420;28;20052;-82
2023/05/26 12:02:24;;;;;;;9.50;4.40;;;;;;;;;;5023622;28;20041;-82
2023/05/26 12:04:50;;;;;;;9.65;4.35;;;;;;;;;;5037835;28;20073;-81
2023/05/26 12:07:26;;;;;;;9.25;4.70;;;;;;;;;;5021798;28;20060;-81
2023/05/26 12:10:01;;;;;;;11.73;5.32;;;;;;;;;;5042306;28;20072;-80
2023/05/26 12:12:28;;;;;;;11.07;5.03;;;;;;;;;;5011329;28;20033;-81
2023/05/26 12:15:02;;;;;;;13.13;5.25;;;;;;;;;;5024610;28;20879;-81
2023/05/26 12:17:28;;;;;;;18.15;5.50;;;;;;;;;;5036059;28;20099;-83
2023/05/26 12:19:57;;;;;;;18.60;5.38;;;;;;;;;;5018767;28;20045;-80
2023/05/26 12:22:27;;;;;;;16.57;6.60;;;;;;;;;;5037800;28;20045;-82
2023/05/26 12:24:57;;;;;;;11.27;4.75;;;;;;;;;;5039364;28;20309;-81
2023/05/26 12:27:23;;;;;;;14.23;4.53;;;;;;;;;;5024666;28;20057;-84
2023/05/26 12:29:51;;;;;;;13.07;5.47;;;;;;;;;;5008318;28;20053;-81
2023/05/26 12:32:17;;;;;;;11.82;5.03;;;;;;;;;;5023130;28;20136;-81
2023/05/26 12:34:43;;;;;;;13.10;5.35;;;;;;;;;;5023616;28;20053;-81
2023/05/26 12:37:09;;;;;;;17.67;5.97;;;;;;;;;;5024146;28;20052;-82
2023/05/26 12:39:35;;;;;;;20.95;8.05;;;;;;;;;;5023701;28;20052;-81
2023/05/26 12:42:01;;;;;;;8.98;5.22;;;;;;;;;;5040817;28;20516;-82
2023/05/26 12:44:28;;;;;;;15.05;5.13;;;;;;;;;;5040411;28;20471;-83
2023/05/26 12:46:53;;;;;;;19.83;5.45;;;;;;;;;;5022003;28;20049;-82
2023/05/26 12:49:20;;;;;;;7.63;4.53;;;;;;;;;;5039219;28;20068;-81
2023/05/26 12:51:47;;;;;;;7.97;5.22;;;;;;;;;;5038370;28;20060;-82
2023/05/26 12:54:13;;;;;;;4.25;3.85;;;;;;;;;;5040103;28;20041;-83
2023/05/26 12:56:39;;;;;;;7.65;5.07;;;;;;;;;;5024171;28;20045;-82
2023/05/26 12:59:05;;;;;;;5.45;4.57;;;;;;;;;;5025665;28;20056;-82
2023/05/26 13:01:31;;;;;;;16.30;5.72;;;;;;;;;;4989089;28;20433;-82
2023/05/26 13:03:57;;;;;;;5.68;4.70;;;;;;;;;;5021520;28;20052;-81
2023/05/26 13:06:23;;;;;;;6.93;4.53;;;;;;;;;;5039456;28;20045;-82
2023/05/26 13:08:49;;;;;;;5.93;4.40;;;;;;;;;;5021789;28;20045;-82
2023/05/26 13:11:15;;;;;;;8.25;5.05;;;;;;;;;;5020275;28;20238;-82
2023/05/26 13:13:41;;;;;;;10.18;4.63;;;;;;;;;;5022229;28;20120;-81
2023/05/26 13:16:10;;;;;;;8.40;4.57;;;;;;;;;;5021717;28;20132;-82
2023/05/26 13:18:36;;;;;;;11.68;5.53;;;;;;;;;;5040303;28;20067;-82
2023/05/26 13:21:02;;;;;;;5.65;4.47;;;;;;;;;;5041408;28;20076;-81
2023/05/26 13:23:28;;;;;;;12.27;4.63;;;;;;;;;;5024478;28;20043;-82
2023/05/26 13:25:54;;;;;;;12.77;4.88;;;;;;;;;;5040476;28;20049;-81
2023/05/26 13:28:20;;;;;;;11.20;5.00;;;;;;;;;;5022118;28;20045;-83
2023/05/26 13:30:46;;;;;;;11.48;5.78;;;;;;;;;;5037798;28;20052;-82
2023/05/26 13:33:12;;;;;;;18.80;5.10;;;;;;;;;;5036759;28;20045;-84
2023/05/26 13:35:38;;;;;;;17.25;13.95;;;;;;;;;;5037554;28;20132;-82
2023/05/26 13:38:04;;;;;;;7.65;5.03;;;;;;;;;;5040832;28;20064;-82
2023/05/26 13:40:30;;;;;;;6.90;4.30;;;;;;;;;;5043831;28;20045;-82
2023/05/26 13:42:56;;;;;;;6.68;4.97;;;;;;;;;;5032070;28;20359;-80
2023/05/26 13:45:22;;;;;;;8.18;4.47;;;;;;;;;;5052687;28;20047;-82
2023/05/26 13:47:48;;;;;;;6.80;4.70;;;;;;;;;;5032075;28;20041;-82
2023/05/26 13:50:14;;;;;;;5.22;4.15;;;;;;;;;;5046101;28;20101;-82
2023/05/26 13:52:41;;;;;;;10.68;4.43;;;;;;;;;;5041717;28;20053;-82
2023/05/26 13:55:07;;;;;;;6.95;4.60;;;;;;;;;;5024333;28;20091;-82
2023/05/26 13:57:33;;;;;;;10.45;4.55;;;;;;;;;;5002504;28;20054;-82
2023/05/26 13:59:59;;;;;;;4.47;4.07;;;;;;;;;;5007763;28;20045;-81
2023/05/26 14:02:25;;;;;;;5.85;4.40;;;;;;;;;;5025689;28;20124;-84
2023/05/26 14:04:51;;;;;;;4.97;4.43;;;;;;;;;;5026924;28;20378;-83
2023/05/26 14:07:17;;;;;;;8.02;4.65;;;;;;;;;;5026286;28;20510;-82
2023/05/26 14:09:43;;;;;;;11.63;4.90;;;;;;;;;;5008246;28;20045;-82
2023/05/26 14:12:09;;;;;;;4.47;4.15;;;;;;;;;;4992028;28;20057;-81
2023/05/26 14:14:36;;;;;;;8.07;4.63;;;;;;;;;;4990018;28;20041;-80
2023/05/26 14:17:02;;;;;;;9.88;4.78;;;;;;;;;;4973640;28;20049;-82
2023/05/26 14:19:28;;;;;;;6.22;4.40;;;;;;;;;;5004737;28;20049;-82
2023/05/26 14:21:54;;;;;;;5.90;4.20;;;;;;;;;;5020363;28;20092;-82
2023/05/26 14:24:21;;;;;;;4.75;4.20;;;;;;;;;;5020794;28;20042;-82
2023/05/26 14:26:47;;;;;;;4.80;4.38;;;;;;;;;;4987599;28;20497;-83
2023/05/26 14:29:14;;;;;;;7.78;4.13;;;;;;;;;;5021447;28;20137;-82
2023/05/26 14:31:40;;;;;;;7.22;4.63;;;;;;;;;;5023933;28;20053;-83
2023/05/26 14:34:05;;;;;;;7.45;4.72;;;;;;;;;;5023399;28;20034;-82
2023/05/26 14:36:31;;;;;;;6.95;4.22;;;;;;;;;;5025240;28;20071;-82